createdAt,value
2022-12-15T00:02:46.393Z,4.22
2022-12-15T00:05:31.680Z,4.32
2022-12-15T00:08:24.327Z,3.75
2022-12-15T00:11:09.397Z,4.85
2022-12-15T00:13:54.876Z,5.35
2022-12-15T00:16:39.940Z,5.15
2022-12-15T00:19:26.802Z,4.43
2022-12-15T00:22:12.407Z,4.65
2022-12-15T00:24:57.656Z,4.63
2022-12-15T00:27:42.868Z,4.22
2022-12-15T00:30:28.714Z,4.03
2022-12-15T00:33:14.093Z,4.00
2022-12-15T00:36:00.995Z,5.30
2022-12-15T00:38:47.672Z,4.40
2022-12-15T00:41:17.158Z,3.85
2022-12-15T00:43:45.197Z,4.15
2022-12-15T00:46:30.970Z,5.18
2022-12-15T00:48:59.074Z,4.20
2022-12-15T00:51:45.880Z,4.63
2022-12-15T00:54:31.114Z,4.43
2022-12-15T00:57:16.536Z,4.15
2022-12-15T01:00:01.914Z,4.90
2022-12-15T01:02:47.626Z,4.50
2022-12-15T01:05:33.024Z,4.95
2022-12-15T01:08:19.987Z,6.15
2022-12-15T01:11:05.357Z,4.68
2022-12-15T01:13:50.897Z,4.20
2022-12-15T01:16:36.155Z,5.25
2022-12-15T01:19:24.320Z,4.72
2022-12-15T01:21:51.965Z,4.88
2022-12-15T01:24:21.077Z,4.40
2022-12-15T01:26:48.920Z,5.32
2022-12-15T01:29:17.062Z,4.65
2022-12-15T01:31:45.125Z,4.95
2022-12-15T01:34:20.144Z,5.05
2022-12-15T01:36:48.258Z,5.25
2022-12-15T01:39:16.436Z,5.78
2022-12-15T01:41:44.716Z,4.55
2022-12-15T01:44:17.141Z,4.53
2022-12-15T01:46:45.179Z,5.28
2022-12-15T01:49:15.798Z,5.07
2022-12-15T01:51:45.700Z,4.78
2022-12-15T01:54:16.741Z,5.95
2022-12-15T01:56:46.708Z,4.30
2022-12-15T01:59:16.303Z,4.18
2022-12-15T02:01:44.329Z,4.57
2022-12-15T02:04:19.167Z,4.65
2022-12-15T02:06:46.985Z,4.72
2022-12-15T02:09:15.240Z,4.25
2022-12-15T02:11:45.981Z,4.95
2022-12-15T02:14:18.604Z,4.72
2022-12-15T02:16:53.226Z,4.82
2022-12-15T02:19:32.254Z,5.05
2022-12-15T02:22:06.977Z,4.35
2022-12-15T02:24:46.165Z,4.97
2022-12-15T02:27:25.413Z,5.03
2022-12-15T02:30:21.180Z,4.43
2022-12-15T02:33:04.024Z,4.22
2022-12-15T02:35:38.463Z,5.38
2022-12-15T02:38:06.203Z,5.13
2022-12-15T02:40:34.468Z,4.32
2022-12-15T02:43:04.522Z,5.20
2022-12-15T02:45:36.460Z,4.88
2022-12-15T02:48:13.864Z,4.75
2022-12-15T02:50:51.891Z,5.32
2022-12-15T02:53:31.794Z,5.45
2022-12-15T02:56:03.067Z,4.82
2022-12-15T02:58:35.180Z,5.57
2022-12-15T03:01:06.903Z,5.47
2022-12-15T03:03:36.802Z,5.30
2022-12-15T03:06:07.074Z,5.75
2022-12-15T03:08:35.056Z,5.07
2022-12-15T03:11:02.953Z,4.60
2022-12-15T03:13:31.277Z,4.18
2022-12-15T03:16:00.717Z,5.05
2022-12-15T03:18:28.551Z,4.88
2022-12-15T03:20:56.261Z,5.82
2022-12-15T03:23:25.693Z,6.07
2022-12-15T03:25:53.675Z,4.97
2022-12-15T03:28:21.330Z,5.70
2022-12-15T03:30:50.394Z,5.22
2022-12-15T03:33:19.986Z,5.18
2022-12-15T03:35:48.080Z,5.70
2022-12-15T03:38:15.847Z,5.22
2022-12-15T03:40:45.429Z,4.95
2022-12-15T03:43:14.129Z,5.72
2022-12-15T03:45:42.037Z,6.43
2022-12-15T03:48:09.799Z,5.63
2022-12-15T03:50:37.538Z,5.15
2022-12-15T03:53:06.202Z,5.30
2022-12-15T03:55:35.337Z,5.05
2022-12-15T03:58:04.877Z,4.72
2022-12-15T04:00:32.721Z,4.85
2022-12-15T04:03:00.917Z,5.28
2022-12-15T04:05:30.344Z,5.80
2022-12-15T04:07:58.948Z,5.35
2022-12-15T04:10:33.632Z,5.22
2022-12-15T04:13:02.843Z,4.28
2022-12-15T04:15:32.416Z,6.15
2022-12-15T04:18:02.098Z,5.28
2022-12-15T04:20:30.059Z,5.20
2022-12-15T04:22:58.077Z,4.97
2022-12-15T04:25:43.897Z,5.30
2022-12-15T04:28:29.911Z,4.43
2022-12-15T04:31:17.768Z,5.22
2022-12-15T04:34:04.766Z,4.82
2022-12-15T04:36:50.133Z,5.32
2022-12-15T04:39:35.120Z,4.95
2022-12-15T04:42:21.197Z,5.18
2022-12-15T04:45:06.687Z,5.60
2022-12-15T04:47:53.567Z,5.38
2022-12-15T04:50:38.858Z,5.25
2022-12-15T04:53:27.663Z,5.32
2022-12-15T04:56:18.221Z,4.85
2022-12-15T04:59:04.160Z,5.25
2022-12-15T05:01:49.315Z,4.88
2022-12-15T05:04:37.138Z,4.88
2022-12-15T05:07:22.408Z,5.03
2022-12-15T05:10:14.303Z,5.63
2022-12-15T05:13:00.216Z,5.25
2022-12-15T05:15:45.183Z,5.60
2022-12-15T05:18:30.199Z,5.10
2022-12-15T05:21:17.572Z,5.45
2022-12-15T05:24:02.647Z,5.50
2022-12-15T05:26:52.342Z,5.22
2022-12-15T05:29:37.810Z,5.88
2022-12-15T05:32:05.792Z,4.68
2022-12-15T05:34:34.552Z,5.32
2022-12-15T05:37:04.966Z,4.53
2022-12-15T05:39:33.800Z,5.00
2022-12-15T05:42:01.685Z,5.85
2022-12-15T05:44:29.506Z,5.63
2022-12-15T05:46:57.207Z,5.38
2022-12-15T05:49:25.082Z,5.00
2022-12-15T05:51:53.042Z,5.18
2022-12-15T05:54:23.354Z,5.97
2022-12-15T05:56:51.263Z,5.00
2022-12-15T05:59:19.744Z,5.55
2022-12-15T06:01:48.726Z,4.85
2022-12-15T06:04:16.886Z,5.30
2022-12-15T06:06:45.339Z,6.13
2022-12-15T06:09:13.641Z,4.45
2022-12-15T06:11:42.924Z,4.90
2022-12-15T06:14:11.112Z,5.00
2022-12-15T06:16:49.823Z,5.80
2022-12-15T06:19:18.603Z,5.68
2022-12-15T06:21:46.565Z,4.70
2022-12-15T06:24:14.491Z,5.72
2022-12-15T06:26:43.999Z,4.78
2022-12-15T06:29:13.250Z,5.57
2022-12-15T06:31:42.984Z,5.40
2022-12-15T06:34:12.997Z,5.15
2022-12-15T06:36:41.513Z,6.00
2022-12-15T06:39:12.203Z,5.13
2022-12-15T06:41:40.432Z,5.45
2022-12-15T06:44:13.178Z,5.90
2022-12-15T06:46:41.380Z,5.38
2022-12-15T06:49:09.777Z,5.72
2022-12-15T06:51:37.608Z,6.07
2022-12-15T06:54:05.358Z,5.43
2022-12-15T06:56:36.074Z,6.15
2022-12-15T06:59:05.604Z,5.82
2022-12-15T07:01:35.478Z,5.32
2022-12-15T07:04:05.971Z,5.95
2022-12-15T07:06:36.752Z,5.40
2022-12-15T07:09:07.356Z,5.32
2022-12-15T07:11:35.279Z,2.10
2022-12-15T07:14:03.171Z,5.38
2022-12-15T07:16:31.843Z,5.47
2022-12-15T07:19:01.630Z,5.95
2022-12-15T07:21:29.481Z,5.93
2022-12-15T07:23:58.729Z,5.03
2022-12-15T07:26:27.536Z,5.25
2022-12-15T07:28:56.175Z,5.57
2022-12-15T07:31:24.683Z,5.55
2022-12-15T07:33:55.047Z,4.88
2022-12-15T07:36:24.480Z,5.60
2022-12-15T07:38:52.893Z,5.57
2022-12-15T07:41:21.765Z,5.28
2022-12-15T07:43:49.781Z,5.53
2022-12-15T07:46:18.020Z,6.40
2022-12-15T07:48:50.553Z,5.28
2022-12-15T07:51:20.403Z,5.07
2022-12-15T07:53:51.361Z,5.35
2022-12-15T07:56:20.671Z,5.18
2022-12-15T07:58:48.754Z,4.78
2022-12-15T08:01:16.664Z,5.10
2022-12-15T08:03:45.125Z,5.80
2022-12-15T08:06:14.349Z,5.25
2022-12-15T08:08:42.921Z,5.75
2022-12-15T08:11:13.616Z,4.63
2022-12-15T08:16:30.535Z,5.40
2022-12-15T08:18:58.561Z,5.05
2022-12-15T08:21:26.660Z,6.22
2022-12-15T08:23:55.251Z,6.10
2022-12-15T08:26:29.974Z,5.68
2022-12-15T08:29:17.391Z,6.30
2022-12-15T08:31:46.637Z,5.07
2022-12-15T08:34:14.607Z,7.55
2022-12-15T08:36:42.772Z,6.47
2022-12-15T08:39:10.885Z,6.63
2022-12-15T08:41:41.322Z,7.38
2022-12-15T08:44:09.250Z,7.57
2022-12-15T08:46:37.243Z,6.75
2022-12-15T08:49:08.627Z,8.15
2022-12-15T08:51:36.550Z,8.15
2022-12-15T08:54:04.575Z,8.48
2022-12-15T08:56:32.232Z,7.63
2022-12-15T08:59:02.417Z,7.72
2022-12-15T09:01:31.936Z,8.20
2022-12-15T09:04:00.226Z,7.82
2022-12-15T09:06:29.321Z,9.25
2022-12-15T09:08:59.545Z,9.55
2022-12-15T09:11:28.031Z,8.52
2022-12-15T09:13:56.242Z,8.43
2022-12-15T09:16:26.207Z,8.98
2022-12-15T09:18:57.670Z,9.50
2022-12-15T09:21:28.274Z,8.85
2022-12-15T09:24:01.513Z,9.13
2022-12-15T09:26:30.226Z,9.35
2022-12-15T09:28:59.239Z,9.02
2022-12-15T09:31:30.705Z,8.82
2022-12-15T09:33:59.999Z,9.52
2022-12-15T09:36:28.451Z,8.50
2022-12-15T09:38:56.830Z,8.82
2022-12-15T09:41:25.710Z,9.45
2022-12-15T09:43:56.646Z,9.55
2022-12-15T09:46:27.693Z,9.25
2022-12-15T09:49:00.612Z,9.95
2022-12-15T09:51:32.365Z,8.70
2022-12-15T09:54:03.158Z,9.30
2022-12-15T09:56:36.059Z,9.02
2022-12-15T09:59:06.725Z,8.38
2022-12-15T10:01:39.662Z,10.13
2022-12-15T10:04:14.258Z,9.65
2022-12-15T10:06:45.749Z,8.85
2022-12-15T10:09:20.008Z,9.30
2022-12-15T10:11:50.630Z,9.23
2022-12-15T10:14:22.731Z,8.90
2022-12-15T10:16:59.845Z,9.43
2022-12-15T10:19:32.727Z,8.80
2022-12-15T10:22:00.930Z,9.90
2022-12-15T10:25:08.662Z,8.65
2022-12-15T10:27:27.039Z,8.85
2022-12-15T10:29:59.999Z,9.77
2022-12-15T10:32:31.475Z,9.90
2022-12-15T10:35:01.009Z,9.85
2022-12-15T10:37:29.491Z,10.02
2022-12-15T10:39:57.445Z,9.48
2022-12-15T10:42:27.382Z,9.40
2022-12-15T10:44:56.891Z,8.77
2022-12-15T10:47:26.091Z,9.10
2022-12-15T10:49:54.577Z,9.18
2022-12-15T10:52:27.013Z,10.07
2022-12-15T10:54:56.540Z,8.70
2022-12-15T10:57:28.841Z,8.45
2022-12-15T10:59:57.642Z,9.38
2022-12-15T11:02:32.887Z,9.13
2022-12-15T11:05:02.849Z,9.38
2022-12-15T11:07:35.813Z,9.00
2022-12-15T11:10:10.256Z,8.15
2022-12-15T11:12:57.911Z,8.40
2022-12-15T11:15:36.026Z,8.85
2022-12-15T11:18:10.762Z,7.93
2022-12-15T11:20:40.364Z,9.00
2022-12-15T11:23:15.309Z,8.93
2022-12-15T11:25:44.698Z,8.48
2022-12-15T11:28:16.116Z,9.05
2022-12-15T11:30:46.209Z,9.65
2022-12-15T11:33:14.418Z,9.15
2022-12-15T11:35:54.454Z,9.45
2022-12-15T11:38:27.472Z,9.10
2022-12-15T11:40:55.722Z,9.55
2022-12-15T11:43:39.342Z,10.05
2022-12-15T11:46:27.067Z,9.50
2022-12-15T11:49:13.084Z,9.73
2022-12-15T11:51:43.730Z,9.63
2022-12-15T11:54:17.081Z,9.57
2022-12-15T11:56:49.108Z,9.80
2022-12-15T11:59:41.185Z,9.25
2022-12-15T12:02:16.464Z,9.07
2022-12-15T12:04:52.759Z,8.75
2022-12-15T12:07:23.960Z,8.77
2022-12-15T12:10:03.930Z,8.98
2022-12-15T12:12:34.824Z,8.90
2022-12-15T12:15:09.860Z,9.15
2022-12-15T12:17:41.829Z,8.20
2022-12-15T12:20:15.494Z,8.77
2022-12-15T12:22:46.380Z,8.65
2022-12-15T12:25:21.979Z,8.35
2022-12-15T12:27:53.179Z,7.78
2022-12-15T12:30:23.568Z,8.00
2022-12-15T12:32:55.255Z,7.70
2022-12-15T12:35:30.545Z,7.20
2022-12-15T12:40:59.622Z,7.78
2022-12-15T12:43:37.393Z,8.27
2022-12-15T12:46:10.515Z,8.30
2022-12-15T12:48:40.518Z,7.60
2022-12-15T12:51:16.288Z,7.53
2022-12-15T12:53:45.268Z,8.43
2022-12-15T12:56:27.944Z,7.47
2022-12-15T12:58:58.960Z,7.63
2022-12-15T13:01:27.852Z,7.68
2022-12-15T13:04:14.721Z,6.20
2022-12-15T13:07:07.755Z,7.75
2022-12-15T13:10:03.883Z,7.90
2022-12-15T13:12:50.914Z,7.18
2022-12-15T13:15:31.042Z,7.30
2022-12-15T13:18:00.975Z,6.00
2022-12-15T13:20:29.465Z,7.03
2022-12-15T13:23:19.010Z,7.00
2022-12-15T13:25:53.786Z,6.75
2022-12-15T13:28:39.503Z,6.75
2022-12-15T13:31:25.215Z,5.65
2022-12-15T13:33:57.248Z,5.95
2022-12-15T13:36:43.653Z,5.60
2022-12-15T13:39:26.378Z,5.80
2022-12-15T13:42:33.550Z,5.78
2022-12-15T13:45:05.692Z,6.85
2022-12-15T13:47:35.149Z,5.53
2022-12-15T13:50:06.812Z,6.03
2022-12-15T13:53:16.522Z,7.00
2022-12-15T13:55:40.515Z,6.65
2022-12-15T13:58:14.279Z,6.68
2022-12-15T14:00:49.548Z,6.47
2022-12-15T14:03:20.227Z,6.18
2022-12-15T14:05:53.343Z,5.65
2022-12-15T14:08:23.284Z,5.72
2022-12-15T14:10:52.919Z,6.18
2022-12-15T14:13:23.932Z,5.82
2022-12-15T14:15:53.870Z,6.07
2022-12-15T14:18:30.976Z,5.78
2022-12-15T14:20:58.948Z,6.20
2022-12-15T14:23:27.538Z,5.05
2022-12-15T14:25:56.981Z,5.32
2022-12-15T14:28:30.110Z,5.53
2022-12-15T14:30:59.004Z,5.38
2022-12-15T14:33:29.777Z,5.47
2022-12-15T14:36:01.898Z,5.50
2022-12-15T14:38:33.277Z,5.35
2022-12-15T14:41:02.947Z,5.13
2022-12-15T14:43:33.489Z,5.93
2022-12-15T14:46:07.945Z,5.90
2022-12-15T14:48:42.090Z,5.63
2022-12-15T14:51:12.922Z,5.43
2022-12-15T14:53:42.381Z,6.00
2022-12-15T14:56:13.744Z,5.50
2022-12-15T14:58:42.597Z,4.50
2022-12-15T15:01:23.768Z,5.72
2022-12-15T15:03:09.493Z,8.07
2022-12-15T15:03:58.077Z,5.82
2022-12-15T15:06:31.333Z,5.20
2022-12-15T15:09:04.430Z,5.35
2022-12-15T15:11:34.160Z,5.28
2022-12-15T15:14:04.357Z,5.60
2022-12-15T15:16:32.175Z,5.22
2022-12-15T15:19:01.785Z,5.30
2022-12-15T15:21:35.172Z,5.43
2022-12-15T15:24:03.951Z,5.28
2022-12-15T15:26:32.274Z,5.18
2022-12-15T15:29:00.182Z,5.43
2022-12-15T15:31:36.673Z,5.20
2022-12-15T15:34:08.088Z,5.68
2022-12-15T15:36:38.964Z,5.78
2022-12-15T15:39:11.880Z,6.05
2022-12-15T15:41:39.875Z,5.63
2022-12-15T15:44:12.954Z,6.22
2022-12-15T15:46:44.299Z,6.15
2022-12-15T15:49:16.289Z,6.15
2022-12-15T15:51:45.877Z,5.25
2022-12-15T15:54:15.700Z,5.78
2022-12-15T15:56:43.564Z,5.72
2022-12-15T15:59:12.656Z,5.28
2022-12-15T16:01:42.838Z,6.93
2022-12-15T16:04:11.058Z,6.13
2022-12-15T16:06:46.715Z,5.70
2022-12-15T16:09:17.178Z,5.50
2022-12-15T16:11:46.953Z,6.00
2022-12-15T16:14:15.842Z,5.00
2022-12-15T16:16:45.813Z,6.03
2022-12-15T16:19:15.775Z,6.38
2022-12-15T16:21:44.018Z,6.47
2022-12-15T16:24:14.606Z,7.32
2022-12-15T16:26:47.432Z,7.20
2022-12-15T16:29:16.658Z,7.10
2022-12-15T16:31:45.848Z,6.05
2022-12-15T16:34:14.081Z,5.22
2022-12-15T16:36:42.148Z,6.63
2022-12-15T16:39:19.973Z,7.15
2022-12-15T16:41:49.637Z,5.97
2022-12-15T16:44:17.828Z,6.40
2022-12-15T16:46:46.216Z,5.50
2022-12-15T16:49:14.020Z,7.15
2022-12-15T16:51:44.180Z,7.00
2022-12-15T16:54:18.880Z,6.28
2022-12-15T16:56:48.096Z,6.20
2022-12-15T16:59:34.838Z,6.45
2022-12-15T17:02:04.376Z,5.95
2022-12-15T17:04:32.476Z,6.57
2022-12-15T17:07:00.353Z,5.82
2022-12-15T17:09:28.309Z,6.85
2022-12-15T17:11:56.794Z,6.75
2022-12-15T17:14:26.234Z,8.00
2022-12-15T17:16:57.280Z,7.55
2022-12-15T17:19:25.278Z,8.45
2022-12-15T17:21:54.427Z,6.97
2022-12-15T17:24:22.732Z,8.73
2022-12-15T17:26:51.106Z,8.20
2022-12-15T17:29:22.459Z,8.95
2022-12-15T17:31:51.906Z,8.32
2022-12-15T17:34:25.023Z,9.02
2022-12-15T17:36:53.743Z,9.25
2022-12-15T17:39:22.619Z,9.27
2022-12-15T17:42:00.993Z,9.73
2022-12-15T17:44:34.949Z,9.85
2022-12-15T17:47:07.240Z,10.02
2022-12-15T17:49:38.364Z,10.57
2022-12-15T17:52:10.183Z,10.40
2022-12-15T17:54:38.204Z,11.13
2022-12-15T17:57:06.489Z,10.48
2022-12-15T17:59:34.600Z,11.55
2022-12-15T18:02:02.636Z,11.80
2022-12-15T18:04:33.118Z,11.38
2022-12-15T18:07:02.693Z,10.93
2022-12-15T18:09:31.200Z,11.40
2022-12-15T18:11:59.465Z,11.90
2022-12-15T18:14:29.290Z,12.23
2022-12-15T18:17:08.226Z,11.82
2022-12-15T18:19:37.571Z,11.93
2022-12-15T18:22:06.274Z,12.65
2022-12-15T18:24:34.580Z,11.77
2022-12-15T18:27:03.992Z,11.88
2022-12-15T18:29:31.793Z,12.07
2022-12-15T18:31:59.594Z,12.18
2022-12-15T18:34:27.515Z,12.52
2022-12-15T18:36:56.960Z,12.18
2022-12-15T18:39:25.308Z,12.63
2022-12-15T18:41:54.885Z,13.40
2022-12-15T18:44:24.789Z,13.45
2022-12-15T18:46:52.957Z,12.95
2022-12-15T18:49:23.566Z,13.10
2022-12-15T18:51:51.531Z,12.77
2022-12-15T18:54:21.891Z,12.80
2022-12-15T18:56:50.449Z,12.77
2022-12-15T18:59:20.103Z,12.90
2022-12-15T19:01:50.215Z,12.25
2022-12-15T19:04:18.271Z,12.13
2022-12-15T19:06:46.391Z,13.10
2022-12-15T19:09:15.807Z,13.85
2022-12-15T19:12:05.320Z,13.00
2022-12-15T19:14:49.467Z,12.30
2022-12-15T19:17:35.743Z,13.52
2022-12-15T19:20:21.836Z,13.63
2022-12-15T19:22:52.694Z,13.25
2022-12-15T19:25:25.417Z,13.00
2022-12-15T19:27:59.275Z,13.10
2022-12-15T19:30:28.411Z,14.27
2022-12-15T19:32:56.315Z,14.27
2022-12-15T19:35:24.947Z,14.20
2022-12-15T19:37:55.091Z,13.52
2022-12-15T19:40:24.095Z,13.20
2022-12-15T19:42:53.053Z,13.35
2022-12-15T19:45:26.774Z,12.68
2022-12-15T19:47:55.766Z,14.00
2022-12-15T19:50:24.928Z,13.27
2022-12-15T19:52:54.806Z,13.43
2022-12-15T19:55:25.608Z,12.45
2022-12-15T19:57:54.049Z,12.77
2022-12-15T20:00:23.417Z,12.55
2022-12-15T20:02:55.013Z,5.53
2022-12-15T20:05:23.342Z,6.20
2022-12-15T20:07:53.097Z,4.10
2022-12-15T20:10:29.476Z,5.35
2022-12-15T20:12:59.970Z,5.40
2022-12-15T20:15:27.983Z,4.90
2022-12-15T20:17:58.069Z,6.18
2022-12-15T20:20:26.971Z,5.97
2022-12-15T20:22:56.194Z,5.60
2022-12-15T20:25:26.429Z,4.75
2022-12-15T20:27:54.434Z,5.65
2022-12-15T20:30:23.846Z,4.78
2022-12-15T20:32:52.060Z,5.20
2022-12-15T20:35:22.299Z,6.05
2022-12-15T20:37:51.016Z,5.25
2022-12-15T20:40:19.983Z,5.57
2022-12-15T20:42:48.158Z,5.55
2022-12-15T20:45:18.986Z,5.05
2022-12-15T20:47:48.232Z,5.45
2022-12-15T20:50:24.289Z,4.78
2022-12-15T20:52:52.320Z,5.03
2022-12-15T20:55:23.033Z,5.30
2022-12-15T20:57:51.935Z,4.35
2022-12-15T21:00:20.292Z,4.72
2022-12-15T21:02:48.500Z,5.13
2022-12-15T21:05:17.804Z,4.45
2022-12-15T21:07:48.277Z,4.90
2022-12-15T21:10:18.074Z,4.60
2022-12-15T21:12:47.281Z,5.15
2022-12-15T21:15:16.649Z,4.10
2022-12-15T21:17:44.400Z,5.10
2022-12-15T21:20:12.639Z,5.15
2022-12-15T21:22:41.768Z,6.35
2022-12-15T21:25:20.977Z,4.90
2022-12-15T21:27:49.023Z,5.00
2022-12-15T21:30:18.323Z,4.80
2022-12-15T21:32:46.293Z,5.88
2022-12-15T21:35:17.271Z,4.65
2022-12-15T21:37:47.348Z,4.93
2022-12-15T21:40:20.641Z,4.90
2022-12-15T21:42:50.028Z,5.50
2022-12-15T21:45:18.890Z,5.25
2022-12-15T21:48:04.128Z,4.55
2022-12-15T21:50:32.085Z,5.47
2022-12-15T21:53:01.800Z,4.60
2022-12-15T21:55:31.911Z,5.45
2022-12-15T21:57:59.622Z,3.80
2022-12-15T22:00:28.396Z,4.72
2022-12-15T22:02:56.839Z,5.00
2022-12-15T22:05:29.206Z,4.88
2022-12-15T22:07:57.376Z,5.22
2022-12-15T22:10:25.899Z,5.90
2022-12-15T22:12:59.598Z,4.72
2022-12-15T22:15:29.335Z,4.80
2022-12-15T22:17:57.319Z,4.97
2022-12-15T22:20:25.891Z,5.25
2022-12-15T22:22:53.797Z,4.70
2022-12-15T22:25:24.381Z,5.18
2022-12-15T22:27:52.485Z,5.00
2022-12-15T22:30:25.691Z,4.68
2022-12-15T22:32:53.913Z,5.25
2022-12-15T22:35:24.758Z,5.18
2022-12-15T22:37:55.691Z,4.85
2022-12-15T22:40:25.259Z,6.47
2022-12-15T22:43:00.791Z,4.97
2022-12-15T22:45:30.758Z,6.05
2022-12-15T22:47:58.495Z,5.03
2022-12-15T22:50:27.815Z,5.25
2022-12-15T22:52:55.774Z,5.07
2022-12-15T22:55:24.242Z,5.13
2022-12-15T22:57:54.376Z,5.20
2022-12-15T23:00:22.189Z,5.50
2022-12-15T23:02:52.200Z,4.45
2022-12-15T23:05:21.459Z,5.75
2022-12-15T23:07:49.228Z,4.82
2022-12-15T23:10:36.447Z,5.85
2022-12-15T23:13:04.645Z,5.68
2022-12-15T23:15:50.507Z,5.63
2022-12-15T23:18:21.569Z,6.05
2022-12-15T23:20:51.775Z,5.43
2022-12-15T23:23:19.834Z,5.82
2022-12-15T23:25:47.562Z,4.85
2022-12-15T23:28:15.971Z,6.03
2022-12-15T23:30:43.988Z,4.72
2022-12-15T23:33:11.961Z,5.13
2022-12-15T23:35:42.735Z,4.57
2022-12-15T23:38:10.409Z,5.50
2022-12-15T23:40:38.358Z,5.07
2022-12-15T23:43:06.377Z,6.13
2022-12-15T23:45:34.199Z,5.72
2022-12-15T23:48:02.144Z,6.03
2022-12-15T23:50:30.042Z,5.72
2022-12-15T23:53:01.326Z,6.00
2022-12-15T23:55:29.139Z,5.00
2022-12-15T23:57:57.530Z,4.68
